createdAt,value
2023-02-16T00:00:06.316Z,22.38
2023-02-16T00:05:24.855Z,22.40
2023-02-16T00:10:33.990Z,22.38
2023-02-16T00:15:36.851Z,22.37
2023-02-16T00:20:39.600Z,22.26
2023-02-16T00:25:44.024Z,22.29
2023-02-16T00:30:47.442Z,22.29
2023-02-16T00:35:50.474Z,22.27
2023-02-16T00:45:58.351Z,22.18
2023-02-16T00:51:01.498Z,22.20
2023-02-16T00:56:06.536Z,22.21
2023-02-16T01:01:14.164Z,22.24
2023-02-16T01:06:34.746Z,22.27
2023-02-16T01:11:39.546Z,22.30
2023-02-16T01:16:43.877Z,22.27
2023-02-16T01:21:46.720Z,22.24
2023-02-16T01:26:51.997Z,22.24
2023-02-16T01:31:55.030Z,22.21
2023-02-16T01:36:57.927Z,22.17
2023-02-16T01:47:35.356Z,22.10
2023-02-16T01:52:42.551Z,21.99
2023-02-16T01:57:50.360Z,22.02
2023-02-16T02:03:16.552Z,21.98
2023-02-16T02:08:27.911Z,21.92
2023-02-16T02:13:41.032Z,21.84
2023-02-16T02:18:45.263Z,21.82
2023-02-16T02:24:09.670Z,21.78
2023-02-16T02:29:28.447Z,21.73
2023-02-16T02:34:48.047Z,21.67
2023-02-16T02:39:59.535Z,21.60
2023-02-16T02:45:10.540Z,21.57
2023-02-16T02:51:03.101Z,21.50
2023-02-16T02:56:26.692Z,21.45
2023-02-16T03:01:33.587Z,21.38
2023-02-16T03:06:39.549Z,21.34
2023-02-16T03:12:00.659Z,21.31
2023-02-16T03:17:26.863Z,21.24
2023-02-16T03:22:48.283Z,21.22
2023-02-16T03:28:09.512Z,21.17
2023-02-16T03:33:13.932Z,21.14
2023-02-16T03:38:17.036Z,21.12
2023-02-16T03:43:19.980Z,21.09
2023-02-16T03:48:24.324Z,21.06
2023-02-16T03:53:27.101Z,21.04
2023-02-16T03:58:30.200Z,21.03
2023-02-16T04:03:34.379Z,21.01
2023-02-16T04:08:37.168Z,20.98
2023-02-16T04:13:40.022Z,20.96
2023-02-16T04:18:44.140Z,20.95
2023-02-16T04:23:46.916Z,20.95
2023-02-16T04:28:49.798Z,20.91
2023-02-16T04:33:53.931Z,20.88
2023-02-16T04:38:56.684Z,20.87
2023-02-16T04:43:59.571Z,20.85
2023-02-16T04:49:03.859Z,20.83
2023-02-16T04:54:06.837Z,20.81
2023-02-16T04:59:09.672Z,20.79
2023-02-16T05:04:13.925Z,20.76
2023-02-16T05:09:16.780Z,20.74
2023-02-16T05:14:39.689Z,20.72
2023-02-16T05:19:46.474Z,20.69
2023-02-16T05:24:49.906Z,20.66
2023-02-16T05:29:52.874Z,20.66
2023-02-16T05:34:57.065Z,20.63
2023-02-16T05:39:59.839Z,20.60
2023-02-16T05:45:03.590Z,20.59
2023-02-16T05:50:08.755Z,20.57
2023-02-16T05:55:11.679Z,20.57
2023-02-16T06:00:15.972Z,20.55
2023-02-16T06:05:20.380Z,20.53
2023-02-16T06:10:23.128Z,20.50
2023-02-16T06:15:26.099Z,20.49
2023-02-16T06:20:30.335Z,20.47
2023-02-16T06:25:33.206Z,20.45
2023-02-16T06:30:36.399Z,20.45
2023-02-16T06:35:40.966Z,20.42
2023-02-16T06:40:43.765Z,20.40
2023-02-16T06:45:47.099Z,20.37
2023-02-16T06:50:51.774Z,20.36
2023-02-16T06:55:54.604Z,20.35
2023-02-16T07:00:57.489Z,20.33
2023-02-16T07:06:01.704Z,20.33
2023-02-16T07:11:05.136Z,20.33
2023-02-16T07:16:08.543Z,20.31
2023-02-16T07:21:12.774Z,20.32
2023-02-16T07:26:15.601Z,20.31
2023-02-16T07:31:18.898Z,20.31
2023-02-16T07:36:23.207Z,20.32
2023-02-16T07:41:26.280Z,20.30
2023-02-16T07:46:31.621Z,20.30
2023-02-16T07:51:37.380Z,20.30
2023-02-16T07:56:40.234Z,20.29
2023-02-16T08:01:43.118Z,20.13
2023-02-16T08:06:48.595Z,15.17
2023-02-16T08:11:51.378Z,14.63
2023-02-16T08:16:56.352Z,13.52
2023-02-16T08:22:02.349Z,16.23
2023-02-16T08:27:07.455Z,17.93
2023-02-16T08:32:12.999Z,18.54
2023-02-16T08:37:17.813Z,18.90
2023-02-16T08:42:21.250Z,19.16
2023-02-16T08:47:24.363Z,19.38
2023-02-16T08:52:29.116Z,19.55
2023-02-16T08:57:34.716Z,19.71
2023-02-16T09:02:37.627Z,19.83
2023-02-16T09:07:41.814Z,19.94
2023-02-16T09:12:48.400Z,20.01
2023-02-16T09:17:51.471Z,20.11
2023-02-16T09:22:55.641Z,20.18
2023-02-16T09:27:58.508Z,20.23
2023-02-16T09:33:01.339Z,20.27
2023-02-16T09:38:05.564Z,20.31
2023-02-16T09:43:36.229Z,20.34
2023-02-16T09:48:45.374Z,20.38
2023-02-16T09:53:58.134Z,20.38
2023-02-16T09:59:11.655Z,20.26
2023-02-16T10:04:31.524Z,20.37
2023-02-16T10:09:37.056Z,20.42
2023-02-16T10:14:44.136Z,20.44
2023-02-16T10:19:54.572Z,20.49
2023-02-16T10:25:03.475Z,20.53
2023-02-16T10:30:16.532Z,20.60
2023-02-16T10:35:27.193Z,20.63
2023-02-16T10:40:38.301Z,20.67
2023-02-16T10:45:49.663Z,20.72
2023-02-16T10:51:02.197Z,20.75
2023-02-16T10:56:28.242Z,20.80
2023-02-16T11:01:37.980Z,20.85
2023-02-16T11:06:41.847Z,20.90
2023-02-16T11:11:46.238Z,20.93
2023-02-16T11:16:49.419Z,20.98
2023-02-16T11:21:55.240Z,21.05
2023-02-16T11:27:04.976Z,21.09
2023-02-16T11:32:09.439Z,21.13
2023-02-16T11:37:18.765Z,21.19
2023-02-16T11:42:31.275Z,21.11
2023-02-16T11:47:37.599Z,21.06
2023-02-16T11:52:40.518Z,21.06
2023-02-16T11:57:45.004Z,21.08
2023-02-16T12:03:07.914Z,21.09
2023-02-16T12:08:33.439Z,21.11
2023-02-16T12:13:49.628Z,21.14
2023-02-16T12:19:07.547Z,21.16
2023-02-16T12:24:36.531Z,21.19
2023-02-16T12:29:53.743Z,21.21
2023-02-16T12:35:09.701Z,21.24
2023-02-16T12:40:24.230Z,21.24
2023-02-16T12:45:34.564Z,21.28
2023-02-16T12:50:41.015Z,21.33
2023-02-16T12:55:48.964Z,21.33
2023-02-16T13:00:57.221Z,21.23
2023-02-16T13:06:09.203Z,21.22
2023-02-16T13:11:19.719Z,21.24
2023-02-16T13:16:33.489Z,21.28
2023-02-16T13:22:04.017Z,21.27
2023-02-16T13:27:28.188Z,21.30
2023-02-16T13:32:51.017Z,21.29
2023-02-16T13:38:07.063Z,21.33
2023-02-16T13:43:19.827Z,21.37
2023-02-16T13:48:27.470Z,21.53
2023-02-16T13:53:35.947Z,21.54
2023-02-16T13:58:40.811Z,21.62
2023-02-16T14:03:45.087Z,21.64
2023-02-16T14:09:28.384Z,21.70
2023-02-16T14:14:33.193Z,21.61
2023-02-16T14:19:37.503Z,21.60
2023-02-16T14:24:43.011Z,21.64
2023-02-16T14:29:57.642Z,21.68
2023-02-16T14:35:09.229Z,21.69
2023-02-16T14:40:16.749Z,21.76
2023-02-16T14:45:46.868Z,21.85
2023-02-16T14:51:17.755Z,21.99
2023-02-16T14:56:38.123Z,22.06
2023-02-16T15:01:42.715Z,22.22
2023-02-16T15:06:48.664Z,22.13
2023-02-16T15:12:11.324Z,22.07
2023-02-16T15:17:28.597Z,22.05
2023-02-16T15:22:33.408Z,22.02
2023-02-16T15:27:37.290Z,22.01
2023-02-16T15:32:41.149Z,22.05
2023-02-16T15:37:45.378Z,21.99
2023-02-16T15:42:50.563Z,21.92
2023-02-16T15:47:54.040Z,21.86
2023-02-16T15:52:58.309Z,21.81
2023-02-16T15:58:01.197Z,21.75
2023-02-16T16:03:05.555Z,21.71
2023-02-16T16:08:17.256Z,21.65
2023-02-16T16:13:22.421Z,21.62
2023-02-16T16:18:46.348Z,21.59
2023-02-16T16:24:11.814Z,21.56
2023-02-16T16:29:31.743Z,21.53
2023-02-16T16:34:37.304Z,21.43
2023-02-16T16:39:42.410Z,21.46
2023-02-16T16:44:55.205Z,21.46
2023-02-16T16:50:00.681Z,21.44
2023-02-16T16:55:22.196Z,21.44
2023-02-16T17:00:28.021Z,21.36
2023-02-16T17:05:31.776Z,21.39
2023-02-16T17:10:37.616Z,21.38
2023-02-16T17:15:48.715Z,21.45
2023-02-16T17:20:52.536Z,21.45
2023-02-16T17:25:56.652Z,21.44
2023-02-16T17:30:59.548Z,21.43
2023-02-16T17:36:04.267Z,21.41
2023-02-16T17:41:08.686Z,21.37
2023-02-16T17:46:11.750Z,21.36
2023-02-16T17:51:16.286Z,21.34
2023-02-16T17:56:23.052Z,21.30
2023-02-16T18:01:25.837Z,21.29
2023-02-16T18:06:29.286Z,21.28
2023-02-16T18:11:33.562Z,21.24
2023-02-16T18:16:36.420Z,21.27
2023-02-16T18:21:39.232Z,21.32
2023-02-16T18:26:43.574Z,21.39
2023-02-16T18:31:47.374Z,21.49
2023-02-16T18:36:50.239Z,21.59
2023-02-16T18:41:54.361Z,21.64
2023-02-16T18:46:57.325Z,21.71
2023-02-16T18:52:00.239Z,21.76
2023-02-16T18:57:05.056Z,21.80
2023-02-16T19:02:08.744Z,21.85
2023-02-16T19:07:11.581Z,21.91
2023-02-16T19:12:15.996Z,21.97
2023-02-16T19:17:18.752Z,21.99
2023-02-16T19:22:22.082Z,22.02
2023-02-16T19:27:26.198Z,22.03
2023-02-16T19:32:29.138Z,22.07
2023-02-16T19:37:32.340Z,22.08
2023-02-16T19:42:36.633Z,22.11
2023-02-16T19:47:39.456Z,22.12
2023-02-16T19:52:42.327Z,22.09
2023-02-16T19:57:46.515Z,22.15
2023-02-16T20:02:49.512Z,22.20
2023-02-16T20:07:52.454Z,22.18
2023-02-16T20:12:56.796Z,22.25
2023-02-16T20:17:59.677Z,22.27
2023-02-16T20:23:02.586Z,22.29
2023-02-16T20:28:06.795Z,22.29
2023-02-16T20:33:09.757Z,22.32
2023-02-16T20:38:12.544Z,22.37
2023-02-16T20:43:20.784Z,22.39
2023-02-16T20:48:23.806Z,22.39
2023-02-16T20:53:28.097Z,22.44
2023-02-16T20:58:32.801Z,22.44
2023-02-16T21:03:35.659Z,22.46
2023-02-16T21:08:38.899Z,22.50
2023-02-16T21:13:43.602Z,22.48
2023-02-16T21:18:46.639Z,22.51
2023-02-16T21:23:52.883Z,22.50
2023-02-16T21:28:57.021Z,22.56
2023-02-16T21:33:59.851Z,22.56
2023-02-16T21:39:03.135Z,22.62
2023-02-16T21:44:09.365Z,22.60
2023-02-16T21:49:14.530Z,22.67
2023-02-16T21:54:40.514Z,22.67
2023-02-16T21:59:44.601Z,22.68
2023-02-16T22:04:47.354Z,22.67
2023-02-16T22:09:50.151Z,22.68
2023-02-16T22:14:54.290Z,22.63
2023-02-16T22:19:57.071Z,22.68
2023-02-16T22:24:59.823Z,22.67
2023-02-16T22:30:04.426Z,22.59
2023-02-16T22:35:07.804Z,22.58
2023-02-16T22:40:11.098Z,22.62
2023-02-16T22:45:15.456Z,22.54
2023-02-16T22:50:18.300Z,22.51
2023-02-16T22:55:21.127Z,22.52
2023-02-16T23:00:25.330Z,22.49
2023-02-16T23:05:30.689Z,22.50
2023-02-16T23:10:33.409Z,22.53
2023-02-16T23:15:37.539Z,22.46
2023-02-16T23:20:40.268Z,22.58
2023-02-16T23:25:45.857Z,22.58
2023-02-16T23:30:49.961Z,22.56
2023-02-16T23:35:54.089Z,22.57
2023-02-16T23:40:58.358Z,22.56
2023-02-16T23:46:02.953Z,22.55
2023-02-16T23:51:06.697Z,22.54
2023-02-16T23:56:14.501Z,22.56
